sensor_id;sensor_type;location;lat;lon;timestamp;temperature;humidity
8539;DHT22;4307;53.868;11.680;2022-08-21T00:00:38;17.00;99.90
8539;DHT22;4307;53.868;11.680;2022-08-21T00:03:08;16.90;99.90
8539;DHT22;4307;53.868;11.680;2022-08-21T00:05:37;16.90;99.90
8539;DHT22;4307;53.868;11.680;2022-08-21T00:08:06;16.80;99.90
8539;DHT22;4307;53.868;11.680;2022-08-21T00:10:33;16.70;99.90
8539;DHT22;4307;53.868;11.680;2022-08-21T00:13:01;16.70;99.90
8539;DHT22;4307;53.868;11.680;2022-08-21T00:15:29;16.60;99.90
8539;DHT22;4307;53.868;11.680;2022-08-21T00:17:56;16.60;99.90
8539;DHT22;4307;53.868;11.680;2022-08-21T00:20:30;16.60;99.90
8539;DHT22;4307;53.868;11.680;2022-08-21T00:22:57;16.60;99.90
8539;DHT22;4307;53.868;11.680;2022-08-21T00:25:27;16.60;99.90
8539;DHT22;4307;53.868;11.680;2022-08-21T00:27:54;16.60;99.90
8539;DHT22;4307;53.868;11.680;2022-08-21T00:30:23;16.60;99.90
8539;DHT22;4307;53.868;11.680;2022-08-21T00:32:52;16.60;99.90
8539;DHT22;4307;53.868;11.680;2022-08-21T00:35:23;16.50;99.90
8539;DHT22;4307;53.868;11.680;2022-08-21T00:37:57;16.50;99.90
8539;DHT22;4307;53.868;11.680;2022-08-21T00:40:32;16.50;99.90
8539;DHT22;4307;53.868;11.680;2022-08-21T00:43:02;16.40;99.90
8539;DHT22;4307;53.868;11.680;2022-08-21T00:45:30;16.40;99.90
8539;DHT22;4307;53.868;11.680;2022-08-21T00:47:57;16.40;99.90
8539;DHT22;4307;53.868;11.680;2022-08-21T00:50:26;16.40;99.90
8539;DHT22;4307;53.868;11.680;2022-08-21T00:52:54;16.40;99.90
8539;DHT22;4307;53.868;11.680;2022-08-21T00:55:22;16.40;99.90
8539;DHT22;4307;53.868;11.680;2022-08-21T00:57:55;16.30;99.90
8539;DHT22;4307;53.868;11.680;2022-08-21T01:00:26;16.30;99.90
8539;DHT22;4307;53.868;11.680;2022-08-21T01:02:54;16.20;99.90
8539;DHT22;4307;53.868;11.680;2022-08-21T01:05:22;16.20;99.90
8539;DHT22;4307;53.868;11.680;2022-08-21T01:07:49;16.20;99.90
8539;DHT22;4307;53.868;11.680;2022-08-21T01:10:16;16.10;99.90
8539;DHT22;4307;53.868;11.680;2022-08-21T01:12:43;16.10;99.90
8539;DHT22;4307;53.868;11.680;2022-08-21T01:15:13;16.10;99.90
8539;DHT22;4307;53.868;11.680;2022-08-21T01:17:41;16.10;99.90
8539;DHT22;4307;53.868;11.680;2022-08-21T01:20:10;16.00;99.90
8539;DHT22;4307;53.868;11.680;2022-08-21T01:22:38;16.00;99.90
8539;DHT22;4307;53.868;11.680;2022-08-21T01:25:06;16.00;99.90
8539;DHT22;4307;53.868;11.680;2022-08-21T01:27:34;16.00;99.90
8539;DHT22;4307;53.868;11.680;2022-08-21T01:30:04;16.00;99.90
8539;DHT22;4307;53.868;11.680;2022-08-21T01:32:33;15.90;99.90
8539;DHT22;4307;53.868;11.680;2022-08-21T01:35:01;15.80;99.90
8539;DHT22;4307;53.868;11.680;2022-08-21T01:37:28;15.80;99.90
8539;DHT22;4307;53.868;11.680;2022-08-21T01:39:56;15.70;99.90
8539;DHT22;4307;53.868;11.680;2022-08-21T01:42:23;15.70;99.90
8539;DHT22;4307;53.868;11.680;2022-08-21T01:44:49;15.70;99.90
8539;DHT22;4307;53.868;11.680;2022-08-21T01:47:16;15.70;99.90
8539;DHT22;4307;53.868;11.680;2022-08-21T01:49:44;15.70;99.90
8539;DHT22;4307;53.868;11.680;2022-08-21T01:52:11;15.60;99.90
8539;DHT22;4307;53.868;11.680;2022-08-21T01:54:39;15.50;99.90
8539;DHT22;4307;53.868;11.680;2022-08-21T01:57:07;15.50;99.90
8539;DHT22;4307;53.868;11.680;2022-08-21T01:59:34;15.50;99.90
8539;DHT22;4307;53.868;11.680;2022-08-21T02:02:01;15.50;99.90
8539;DHT22;4307;53.868;11.680;2022-08-21T02:04:28;15.40;99.90
8539;DHT22;4307;53.868;11.680;2022-08-21T02:06:56;15.40;99.90
8539;DHT22;4307;53.868;11.680;2022-08-21T02:09:22;15.40;99.90
8539;DHT22;4307;53.868;11.680;2022-08-21T02:11:49;15.30;99.90
8539;DHT22;4307;53.868;11.680;2022-08-21T02:14:18;15.30;99.90
8539;DHT22;4307;53.868;11.680;2022-08-21T02:16:45;15.30;99.90
8539;DHT22;4307;53.868;11.680;2022-08-21T02:19:13;15.20;99.90
8539;DHT22;4307;53.868;11.680;2022-08-21T02:21:41;15.20;99.90
8539;DHT22;4307;53.868;11.680;2022-08-21T02:24:08;15.10;99.90
8539;DHT22;4307;53.868;11.680;2022-08-21T02:26:35;15.10;99.90
8539;DHT22;4307;53.868;11.680;2022-08-21T02:29:02;15.00;99.90
8539;DHT22;4307;53.868;11.680;2022-08-21T02:31:30;15.00;99.90
8539;DHT22;4307;53.868;11.680;2022-08-21T02:33:58;15.00;99.90
8539;DHT22;4307;53.868;11.680;2022-08-21T02:36:25;15.00;99.90
8539;DHT22;4307;53.868;11.680;2022-08-21T02:38:51;15.00;99.90
8539;DHT22;4307;53.868;11.680;2022-08-21T02:41:20;15.00;99.90
8539;DHT22;4307;53.868;11.680;2022-08-21T02:43:47;15.00;99.90
8539;DHT22;4307;53.868;11.680;2022-08-21T02:46:16;15.00;99.90
8539;DHT22;4307;53.868;11.680;2022-08-21T02:48:44;15.00;99.90
8539;DHT22;4307;53.868;11.680;2022-08-21T02:51:14;14.90;99.90
8539;DHT22;4307;53.868;11.680;2022-08-21T02:53:42;15.00;99.90
8539;DHT22;4307;53.868;11.680;2022-08-21T02:56:13;14.90;99.90
8539;DHT22;4307;53.868;11.680;2022-08-21T02:58:43;14.90;99.90
8539;DHT22;4307;53.868;11.680;2022-08-21T03:01:11;14.90;99.90
8539;DHT22;4307;53.868;11.680;2022-08-21T03:03:40;14.90;99.90
8539;DHT22;4307;53.868;11.680;2022-08-21T03:06:11;14.90;99.90
8539;DHT22;4307;53.868;11.680;2022-08-21T03:08:38;14.80;99.90
8539;DHT22;4307;53.868;11.680;2022-08-21T03:11:06;14.80;99.90
8539;DHT22;4307;53.868;11.680;2022-08-21T03:13:33;14.70;99.90
8539;DHT22;4307;53.868;11.680;2022-08-21T03:16:00;14.70;99.90
8539;DHT22;4307;53.868;11.680;2022-08-21T03:18:26;14.70;99.90
8539;DHT22;4307;53.868;11.680;2022-08-21T03:20:53;14.70;99.90
8539;DHT22;4307;53.868;11.680;2022-08-21T03:23:21;14.60;99.90
8539;DHT22;4307;53.868;11.680;2022-08-21T03:25:48;14.60;99.90
8539;DHT22;4307;53.868;11.680;2022-08-21T03:28:18;14.50;99.90
8539;DHT22;4307;53.868;11.680;2022-08-21T03:30:48;14.50;99.90
8539;DHT22;4307;53.868;11.680;2022-08-21T03:33:15;14.50;99.90
8539;DHT22;4307;53.868;11.680;2022-08-21T03:35:42;14.50;99.90
8539;DHT22;4307;53.868;11.680;2022-08-21T03:38:10;14.50;99.90
8539;DHT22;4307;53.868;11.680;2022-08-21T03:40:39;14.50;99.90
8539;DHT22;4307;53.868;11.680;2022-08-21T03:43:06;14.40;99.90
8539;DHT22;4307;53.868;11.680;2022-08-21T03:45:34;14.40;99.90
8539;DHT22;4307;53.868;11.680;2022-08-21T03:48:03;14.40;99.90
8539;DHT22;4307;53.868;11.680;2022-08-21T03:50:32;14.40;99.90
8539;DHT22;4307;53.868;11.680;2022-08-21T03:53:00;14.40;99.90
8539;DHT22;4307;53.868;11.680;2022-08-21T03:55:27;14.30;99.90
8539;DHT22;4307;53.868;11.680;2022-08-21T03:57:55;14.30;99.90
8539;DHT22;4307;53.868;11.680;2022-08-21T04:00:22;14.30;99.90
8539;DHT22;4307;53.868;11.680;2022-08-21T04:02:49;14.30;99.90
8539;DHT22;4307;53.868;11.680;2022-08-21T04:05:17;14.30;99.90
8539;DHT22;4307;53.868;11.680;2022-08-21T04:07:53;14.30;99.90
8539;DHT22;4307;53.868;11.680;2022-08-21T04:10:19;14.30;99.90
8539;DHT22;4307;53.868;11.680;2022-08-21T04:12:46;14.20;99.90
8539;DHT22;4307;53.868;11.680;2022-08-21T04:15:14;14.20;99.90
8539;DHT22;4307;53.868;11.680;2022-08-21T04:17:41;14.20;99.90
8539;DHT22;4307;53.868;11.680;2022-08-21T04:20:08;14.20;99.90
8539;DHT22;4307;53.868;11.680;2022-08-21T04:22:35;14.10;99.90
8539;DHT22;4307;53.868;11.680;2022-08-21T04:25:02;14.10;99.90
8539;DHT22;4307;53.868;11.680;2022-08-21T04:27:29;14.10;99.90
8539;DHT22;4307;53.868;11.680;2022-08-21T04:29:55;14.10;99.90
8539;DHT22;4307;53.868;11.680;2022-08-21T04:32:24;14.10;99.90
8539;DHT22;4307;53.868;11.680;2022-08-21T04:34:58;14.10;99.90
8539;DHT22;4307;53.868;11.680;2022-08-21T04:37:25;14.10;99.90
8539;DHT22;4307;53.868;11.680;2022-08-21T04:39:51;14.20;99.90
8539;DHT22;4307;53.868;11.680;2022-08-21T04:42:18;14.20;99.90
8539;DHT22;4307;53.868;11.680;2022-08-21T04:44:47;14.20;99.90
8539;DHT22;4307;53.868;11.680;2022-08-21T04:47:14;14.20;99.90
8539;DHT22;4307;53.868;11.680;2022-08-21T04:49:43;14.10;99.90
8539;DHT22;4307;53.868;11.680;2022-08-21T04:52:10;14.10;99.90
8539;DHT22;4307;53.868;11.680;2022-08-21T04:54:37;14.20;99.90
8539;DHT22;4307;53.868;11.680;2022-08-21T04:57:06;14.20;99.90
8539;DHT22;4307;53.868;11.680;2022-08-21T04:59:39;14.30;99.90
8539;DHT22;4307;53.868;11.680;2022-08-21T05:02:08;14.30;99.90
8539;DHT22;4307;53.868;11.680;2022-08-21T05:04:38;14.30;99.90
8539;DHT22;4307;53.868;11.680;2022-08-21T05:07:12;14.40;99.90
8539;DHT22;4307;53.868;11.680;2022-08-21T05:09:39;14.40;99.90
8539;DHT22;4307;53.868;11.680;2022-08-21T05:12:06;14.40;99.90
8539;DHT22;4307;53.868;11.680;2022-08-21T05:14:33;14.40;99.90
8539;DHT22;4307;53.868;11.680;2022-08-21T05:17:00;14.50;99.90
8539;DHT22;4307;53.868;11.680;2022-08-21T05:19:27;14.50;99.90
8539;DHT22;4307;53.868;11.680;2022-08-21T05:21:54;14.60;99.90
8539;DHT22;4307;53.868;11.680;2022-08-21T05:24:22;14.70;99.90
8539;DHT22;4307;53.868;11.680;2022-08-21T05:26:49;14.80;99.90
8539;DHT22;4307;53.868;11.680;2022-08-21T05:29:16;14.80;99.90
8539;DHT22;4307;53.868;11.680;2022-08-21T05:31:43;14.90;99.90
8539;DHT22;4307;53.868;11.680;2022-08-21T05:34:10;15.00;99.90
8539;DHT22;4307;53.868;11.680;2022-08-21T05:36:37;15.20;99.90
8539;DHT22;4307;53.868;11.680;2022-08-21T05:39:04;15.30;99.90
8539;DHT22;4307;53.868;11.680;2022-08-21T05:41:32;15.40;99.90
8539;DHT22;4307;53.868;11.680;2022-08-21T05:43:58;15.60;99.90
8539;DHT22;4307;53.868;11.680;2022-08-21T05:46:25;15.80;99.90
8539;DHT22;4307;53.868;11.680;2022-08-21T05:48:52;16.00;99.90
8539;DHT22;4307;53.868;11.680;2022-08-21T05:51:18;16.30;99.90
8539;DHT22;4307;53.868;11.680;2022-08-21T05:53:45;16.50;99.90
8539;DHT22;4307;53.868;11.680;2022-08-21T05:56:14;16.80;99.90
8539;DHT22;4307;53.868;11.680;2022-08-21T05:58:42;17.00;99.90
8539;DHT22;4307;53.868;11.680;2022-08-21T06:01:10;17.20;99.90
8539;DHT22;4307;53.868;11.680;2022-08-21T06:03:39;17.20;99.90
8539;DHT22;4307;53.868;11.680;2022-08-21T06:06:06;17.20;99.90
8539;DHT22;4307;53.868;11.680;2022-08-21T06:08:33;17.20;99.90
8539;DHT22;4307;53.868;11.680;2022-08-21T06:11:01;17.30;99.90
8539;DHT22;4307;53.868;11.680;2022-08-21T06:13:28;17.40;99.90
8539;DHT22;4307;53.868;11.680;2022-08-21T06:16:04;17.50;99.90
8539;DHT22;4307;53.868;11.680;2022-08-21T06:18:31;17.70;99.90
8539;DHT22;4307;53.868;11.680;2022-08-21T06:20:58;17.90;99.90
8539;DHT22;4307;53.868;11.680;2022-08-21T06:23:25;18.20;99.90
8539;DHT22;4307;53.868;11.680;2022-08-21T06:25:52;18.50;99.90
8539;DHT22;4307;53.868;11.680;2022-08-21T06:28:19;18.80;99.90
8539;DHT22;4307;53.868;11.680;2022-08-21T06:30:45;18.90;99.90
8539;DHT22;4307;53.868;11.680;2022-08-21T06:33:14;19.00;99.90
8539;DHT22;4307;53.868;11.680;2022-08-21T06:35:40;19.10;99.90
8539;DHT22;4307;53.868;11.680;2022-08-21T06:38:09;19.30;99.90
8539;DHT22;4307;53.868;11.680;2022-08-21T06:40:36;19.40;99.90
8539;DHT22;4307;53.868;11.680;2022-08-21T06:43:07;19.60;99.90
8539;DHT22;4307;53.868;11.680;2022-08-21T06:45:35;19.70;99.90
8539;DHT22;4307;53.868;11.680;2022-08-21T06:48:02;19.80;99.90
8539;DHT22;4307;53.868;11.680;2022-08-21T06:50:30;20.00;99.90
8539;DHT22;4307;53.868;11.680;2022-08-21T06:53:02;20.10;99.90
8539;DHT22;4307;53.868;11.680;2022-08-21T06:55:29;20.40;99.90
8539;DHT22;4307;53.868;11.680;2022-08-21T06:57:56;20.50;99.90
8539;DHT22;4307;53.868;11.680;2022-08-21T07:00:22;20.80;99.90
8539;DHT22;4307;53.868;11.680;2022-08-21T07:02:49;21.10;99.90
8539;DHT22;4307;53.868;11.680;2022-08-21T07:05:16;21.30;99.90
8539;DHT22;4307;53.868;11.680;2022-08-21T07:07:44;21.50;99.90
8539;DHT22;4307;53.868;11.680;2022-08-21T07:10:11;21.60;99.90
8539;DHT22;4307;53.868;11.680;2022-08-21T07:12:37;21.70;99.90
8539;DHT22;4307;53.868;11.680;2022-08-21T07:15:05;21.80;99.90
8539;DHT22;4307;53.868;11.680;2022-08-21T07:17:32;22.00;99.90
8539;DHT22;4307;53.868;11.680;2022-08-21T07:19:58;22.10;99.90
8539;DHT22;4307;53.868;11.680;2022-08-21T07:22:25;22.40;99.90
8539;DHT22;4307;53.868;11.680;2022-08-21T07:24:54;22.80;99.90
8539;DHT22;4307;53.868;11.680;2022-08-21T07:27:21;23.30;99.90
8539;DHT22;4307;53.868;11.680;2022-08-21T07:29:47;23.80;98.70
8539;DHT22;4307;53.868;11.680;2022-08-21T07:32:14;24.20;97.40
8539;DHT22;4307;53.868;11.680;2022-08-21T07:34:41;24.40;96.00
8539;DHT22;4307;53.868;11.680;2022-08-21T07:37:08;24.80;95.20
8539;DHT22;4307;53.868;11.680;2022-08-21T07:39:34;24.80;93.30
8539;DHT22;4307;53.868;11.680;2022-08-21T07:42:03;24.80;92.60
8539;DHT22;4307;53.868;11.680;2022-08-21T07:44:30;24.80;92.40
8539;DHT22;4307;53.868;11.680;2022-08-21T07:46:56;25.00;92.10
8539;DHT22;4307;53.868;11.680;2022-08-21T07:49:23;25.10;91.30
8539;DHT22;4307;53.868;11.680;2022-08-21T07:51:50;25.20;91.60
8539;DHT22;4307;53.868;11.680;2022-08-21T07:54:17;25.50;91.30
8539;DHT22;4307;53.868;11.680;2022-08-21T07:56:43;26.00;90.70
8539;DHT22;4307;53.868;11.680;2022-08-21T07:59:12;26.20;87.40
8539;DHT22;4307;53.868;11.680;2022-08-21T08:01:39;26.10;86.40
8539;DHT22;4307;53.868;11.680;2022-08-21T08:04:05;25.90;85.40
8539;DHT22;4307;53.868;11.680;2022-08-21T08:06:32;25.80;85.50
8539;DHT22;4307;53.868;11.680;2022-08-21T08:08:59;26.10;84.90
8539;DHT22;4307;53.868;11.680;2022-08-21T08:11:28;26.30;83.70
8539;DHT22;4307;53.868;11.680;2022-08-21T08:13:55;26.30;82.60
8539;DHT22;4307;53.868;11.680;2022-08-21T08:16:24;26.50;82.50
8539;DHT22;4307;53.868;11.680;2022-08-21T08:18:51;26.90;81.10
8539;DHT22;4307;53.868;11.680;2022-08-21T08:21:20;27.30;79.90
8539;DHT22;4307;53.868;11.680;2022-08-21T08:23:46;27.60;78.90
8539;DHT22;4307;53.868;11.680;2022-08-21T08:26:13;28.00;77.60
8539;DHT22;4307;53.868;11.680;2022-08-21T08:28:40;28.30;76.30
8539;DHT22;4307;53.868;11.680;2022-08-21T08:31:07;28.70;75.20
8539;DHT22;4307;53.868;11.680;2022-08-21T08:33:35;29.00;72.80
8539;DHT22;4307;53.868;11.680;2022-08-21T08:36:02;28.60;71.30
8539;DHT22;4307;53.868;11.680;2022-08-21T08:38:29;28.40;72.40
8539;DHT22;4307;53.868;11.680;2022-08-21T08:41:01;28.60;73.00
8539;DHT22;4307;53.868;11.680;2022-08-21T08:43:30;28.70;72.80
8539;DHT22;4307;53.868;11.680;2022-08-21T08:46:01;29.10;72.60
8539;DHT22;4307;53.868;11.680;2022-08-21T08:48:50;29.10;71.30
8539;DHT22;4307;53.868;11.680;2022-08-21T08:51:22;29.10;70.90
8539;DHT22;4307;53.868;11.680;2022-08-21T08:53:52;29.00;71.30
8539;DHT22;4307;53.868;11.680;2022-08-21T08:56:26;29.00;71.70
8539;DHT22;4307;53.868;11.680;2022-08-21T08:58:54;29.40;71.30
8539;DHT22;4307;53.868;11.680;2022-08-21T09:01:22;29.80;70.70
8539;DHT22;4307;53.868;11.680;2022-08-21T09:03:50;30.00;68.60
8539;DHT22;4307;53.868;11.680;2022-08-21T09:06:36;29.90;67.40
8539;DHT22;4307;53.868;11.680;2022-08-21T09:09:16;29.40;67.70
8539;DHT22;4307;53.868;11.680;2022-08-21T09:11:52;29.20;68.50
8539;DHT22;4307;53.868;11.680;2022-08-21T09:14:26;29.50;68.60
8539;DHT22;4307;53.868;11.680;2022-08-21T09:17:00;29.90;68.00
8539;DHT22;4307;53.868;11.680;2022-08-21T09:19:50;30.00;67.60
8539;DHT22;4307;53.868;11.680;2022-08-21T09:22:28;30.20;67.00
8539;DHT22;4307;53.868;11.680;2022-08-21T09:25:04;30.60;66.40
8539;DHT22;4307;53.868;11.680;2022-08-21T09:27:34;30.90;65.50
8539;DHT22;4307;53.868;11.680;2022-08-21T09:30:04;31.00;64.60
8539;DHT22;4307;53.868;11.680;2022-08-21T09:32:33;30.90;64.50
8539;DHT22;4307;53.868;11.680;2022-08-21T09:35:05;30.80;64.10
8539;DHT22;4307;53.868;11.680;2022-08-21T09:37:35;31.00;63.90
8539;DHT22;4307;53.868;11.680;2022-08-21T09:40:13;31.20;63.20
8539;DHT22;4307;53.868;11.680;2022-08-21T09:42:41;30.80;63.20
8539;DHT22;4307;53.868;11.680;2022-08-21T09:45:12;30.40;63.30
8539;DHT22;4307;53.868;11.680;2022-08-21T09:47:40;30.10;63.60
8539;DHT22;4307;53.868;11.680;2022-08-21T09:50:10;30.10;64.20
8539;DHT22;4307;53.868;11.680;2022-08-21T09:52:43;30.00;64.10
8539;DHT22;4307;53.868;11.680;2022-08-21T09:55:18;29.70;64.60
8539;DHT22;4307;53.868;11.680;2022-08-21T09:57:59;29.70;64.60
8539;DHT22;4307;53.868;11.680;2022-08-21T10:00:29;30.10;64.60
8539;DHT22;4307;53.868;11.680;2022-08-21T10:03:08;30.00;62.80
8539;DHT22;4307;53.868;11.680;2022-08-21T10:05:37;29.70;62.80
8539;DHT22;4307;53.868;11.680;2022-08-21T10:08:05;29.70;64.10
8539;DHT22;4307;53.868;11.680;2022-08-21T10:10:42;29.50;64.10
8539;DHT22;4307;53.868;11.680;2022-08-21T10:13:13;29.30;64.20
8539;DHT22;4307;53.868;11.680;2022-08-21T10:15:48;28.90;64.50
8539;DHT22;4307;53.868;11.680;2022-08-21T10:18:24;28.30;64.90
8539;DHT22;4307;53.868;11.680;2022-08-21T10:21:01;27.90;66.50
8539;DHT22;4307;53.868;11.680;2022-08-21T10:23:41;27.70;67.20
8539;DHT22;4307;53.868;11.680;2022-08-21T10:26:15;27.80;67.80
8539;DHT22;4307;53.868;11.680;2022-08-21T10:28:50;27.60;66.90
8539;DHT22;4307;53.868;11.680;2022-08-21T10:31:25;27.60;67.40
8539;DHT22;4307;53.868;11.680;2022-08-21T10:34:10;27.90;66.60
8539;DHT22;4307;53.868;11.680;2022-08-21T10:36:42;28.10;66.20
8539;DHT22;4307;53.868;11.680;2022-08-21T10:39:18;27.90;65.70
8539;DHT22;4307;53.868;11.680;2022-08-21T10:42:01;27.70;66.00
8539;DHT22;4307;53.868;11.680;2022-08-21T10:44:34;27.20;66.50
8539;DHT22;4307;53.868;11.680;2022-08-21T10:47:06;26.60;67.70
8539;DHT22;4307;53.868;11.680;2022-08-21T10:49:39;26.30;68.40
8539;DHT22;4307;53.868;11.680;2022-08-21T10:52:32;26.20;68.80
8539;DHT22;4307;53.868;11.680;2022-08-21T10:55:02;26.30;68.90
8539;DHT22;4307;53.868;11.680;2022-08-21T10:57:38;26.60;69.20
8539;DHT22;4307;53.868;11.680;2022-08-21T11:00:09;26.90;68.60
8539;DHT22;4307;53.868;11.680;2022-08-21T11:02:40;27.10;68.10
8539;DHT22;4307;53.868;11.680;2022-08-21T11:05:12;27.50;67.50
8539;DHT22;4307;53.868;11.680;2022-08-21T11:07:45;27.70;66.20
8539;DHT22;4307;53.868;11.680;2022-08-21T11:10:17;27.70;65.00
8539;DHT22;4307;53.868;11.680;2022-08-21T11:12:49;27.60;65.10
8539;DHT22;4307;53.868;11.680;2022-08-21T11:15:27;27.70;66.00
8539;DHT22;4307;53.868;11.680;2022-08-21T11:18:02;27.90;65.70
8539;DHT22;4307;53.868;11.680;2022-08-21T11:20:38;28.10;65.10
8539;DHT22;4307;53.868;11.680;2022-08-21T11:23:14;28.00;64.70
8539;DHT22;4307;53.868;11.680;2022-08-21T11:25:47;27.90;64.60
8539;DHT22;4307;53.868;11.680;2022-08-21T11:28:20;27.80;65.80
8539;DHT22;4307;53.868;11.680;2022-08-21T11:30:56;27.50;66.50
8539;DHT22;4307;53.868;11.680;2022-08-21T11:33:41;26.90;66.90
8539;DHT22;4307;53.868;11.680;2022-08-21T11:36:17;26.50;68.10
8539;DHT22;4307;53.868;11.680;2022-08-21T11:38:55;26.30;69.80
8539;DHT22;4307;53.868;11.680;2022-08-21T11:41:28;26.10;68.50
8539;DHT22;4307;53.868;11.680;2022-08-21T11:44:02;26.00;68.70
8539;DHT22;4307;53.868;11.680;2022-08-21T11:46:39;26.00;68.80
8539;DHT22;4307;53.868;11.680;2022-08-21T11:49:40;26.10;68.50
8539;DHT22;4307;53.868;11.680;2022-08-21T11:52:13;26.60;68.20
8539;DHT22;4307;53.868;11.680;2022-08-21T11:54:46;26.80;67.40
8539;DHT22;4307;53.868;11.680;2022-08-21T11:57:17;27.10;67.60
8539;DHT22;4307;53.868;11.680;2022-08-21T11:59:49;27.90;67.10
8539;DHT22;4307;53.868;11.680;2022-08-21T12:02:20;28.10;65.10
8539;DHT22;4307;53.868;11.680;2022-08-21T12:04:51;28.40;65.20
8539;DHT22;4307;53.868;11.680;2022-08-21T12:07:30;28.20;64.40
8539;DHT22;4307;53.868;11.680;2022-08-21T12:09:59;27.70;64.90
8539;DHT22;4307;53.868;11.680;2022-08-21T12:12:27;27.70;65.90
8539;DHT22;4307;53.868;11.680;2022-08-21T12:15:14;28.10;66.00
8539;DHT22;4307;53.868;11.680;2022-08-21T12:17:52;29.00;65.20
8539;DHT22;4307;53.868;11.680;2022-08-21T12:20:32;29.70;63.10
8539;DHT22;4307;53.868;11.680;2022-08-21T12:23:05;29.80;61.40
8539;DHT22;4307;53.868;11.680;2022-08-21T12:25:42;30.10;61.10
8539;DHT22;4307;53.868;11.680;2022-08-21T12:28:11;30.30;60.40
8539;DHT22;4307;53.868;11.680;2022-08-21T12:30:40;30.30;60.00
8539;DHT22;4307;53.868;11.680;2022-08-21T12:33:22;30.60;59.70
8539;DHT22;4307;53.868;11.680;2022-08-21T12:35:51;31.20;59.50
8539;DHT22;4307;53.868;11.680;2022-08-21T12:38:23;31.40;58.20
8539;DHT22;4307;53.868;11.680;2022-08-21T12:40:57;31.10;58.40
8539;DHT22;4307;53.868;11.680;2022-08-21T12:43:29;30.70;58.30
8539;DHT22;4307;53.868;11.680;2022-08-21T12:45:57;30.80;58.70
8539;DHT22;4307;53.868;11.680;2022-08-21T12:48:31;31.20;58.10
8539;DHT22;4307;53.868;11.680;2022-08-21T12:51:10;31.40;57.70
8539;DHT22;4307;53.868;11.680;2022-08-21T12:53:42;32.00;56.90
8539;DHT22;4307;53.868;11.680;2022-08-21T12:56:16;33.00;56.50
8539;DHT22;4307;53.868;11.680;2022-08-21T12:58:45;33.60;55.00
8539;DHT22;4307;53.868;11.680;2022-08-21T13:01:19;33.70;54.50
8539;DHT22;4307;53.868;11.680;2022-08-21T13:03:48;33.50;52.70
8539;DHT22;4307;53.868;11.680;2022-08-21T13:06:17;33.10;52.90
8539;DHT22;4307;53.868;11.680;2022-08-21T13:08:47;32.50;53.80
8539;DHT22;4307;53.868;11.680;2022-08-21T13:11:18;32.10;54.20
8539;DHT22;4307;53.868;11.680;2022-08-21T13:13:48;31.60;55.20
8539;DHT22;4307;53.868;11.680;2022-08-21T13:16:20;31.40;55.50
8539;DHT22;4307;53.868;11.680;2022-08-21T13:18:55;31.00;56.20
8539;DHT22;4307;53.868;11.680;2022-08-21T13:21:27;30.90;55.70
8539;DHT22;4307;53.868;11.680;2022-08-21T13:23:54;31.00;57.20
8539;DHT22;4307;53.868;11.680;2022-08-21T13:26:22;31.00;56.40
8539;DHT22;4307;53.868;11.680;2022-08-21T13:28:49;31.00;56.30
8539;DHT22;4307;53.868;11.680;2022-08-21T13:31:20;30.40;56.10
8539;DHT22;4307;53.868;11.680;2022-08-21T13:33:49;29.70;57.00
8539;DHT22;4307;53.868;11.680;2022-08-21T13:36:18;29.20;58.10
8539;DHT22;4307;53.868;11.680;2022-08-21T13:38:46;28.70;59.10
8539;DHT22;4307;53.868;11.680;2022-08-21T13:41:20;28.10;60.20
8539;DHT22;4307;53.868;11.680;2022-08-21T13:43:56;27.60;61.30
8539;DHT22;4307;53.868;11.680;2022-08-21T13:46:24;27.30;62.70
8539;DHT22;4307;53.868;11.680;2022-08-21T13:48:53;27.40;63.30
8539;DHT22;4307;53.868;11.680;2022-08-21T13:51:20;27.70;63.00
8539;DHT22;4307;53.868;11.680;2022-08-21T13:53:49;27.90;62.80
8539;DHT22;4307;53.868;11.680;2022-08-21T13:56:25;27.90;62.60
8539;DHT22;4307;53.868;11.680;2022-08-21T13:58:55;28.00;62.10
8539;DHT22;4307;53.868;11.680;2022-08-21T14:01:25;28.10;61.50
8539;DHT22;4307;53.868;11.680;2022-08-21T14:03:55;28.20;61.20
8539;DHT22;4307;53.868;11.680;2022-08-21T14:06:26;28.30;61.10
8539;DHT22;4307;53.868;11.680;2022-08-21T14:08:55;28.10;60.80
8539;DHT22;4307;53.868;11.680;2022-08-21T14:11:23;27.70;61.10
8539;DHT22;4307;53.868;11.680;2022-08-21T14:13:58;27.30;61.70
8539;DHT22;4307;53.868;11.680;2022-08-21T14:16:27;27.20;62.80
8539;DHT22;4307;53.868;11.680;2022-08-21T14:19:09;27.10;63.00
8539;DHT22;4307;53.868;11.680;2022-08-21T14:21:39;27.20;63.20
8539;DHT22;4307;53.868;11.680;2022-08-21T14:24:11;27.10;62.90
8539;DHT22;4307;53.868;11.680;2022-08-21T14:26:45;26.70;63.30
8539;DHT22;4307;53.868;11.680;2022-08-21T14:29:16;26.50;64.40
8539;DHT22;4307;53.868;11.680;2022-08-21T14:31:50;26.30;65.00
8539;DHT22;4307;53.868;11.680;2022-08-21T14:34:17;26.20;64.90
8539;DHT22;4307;53.868;11.680;2022-08-21T14:36:44;26.20;65.10
8539;DHT22;4307;53.868;11.680;2022-08-21T14:39:11;26.20;65.10
8539;DHT22;4307;53.868;11.680;2022-08-21T14:41:42;26.10;65.00
8539;DHT22;4307;53.868;11.680;2022-08-21T14:44:11;26.10;66.10
8539;DHT22;4307;53.868;11.680;2022-08-21T14:46:40;26.00;66.20
8539;DHT22;4307;53.868;11.680;2022-08-21T14:49:06;26.00;66.50
8539;DHT22;4307;53.868;11.680;2022-08-21T14:51:33;25.90;66.20
8539;DHT22;4307;53.868;11.680;2022-08-21T14:54:00;26.00;66.80
8539;DHT22;4307;53.868;11.680;2022-08-21T14:56:26;26.00;67.10
8539;DHT22;4307;53.868;11.680;2022-08-21T14:58:54;25.90;67.50
8539;DHT22;4307;53.868;11.680;2022-08-21T15:01:25;25.90;67.50
8539;DHT22;4307;53.868;11.680;2022-08-21T15:03:53;25.90;67.70
8539;DHT22;4307;53.868;11.680;2022-08-21T15:06:20;25.90;67.20
8539;DHT22;4307;53.868;11.680;2022-08-21T15:08:47;25.90;67.00
8539;DHT22;4307;53.868;11.680;2022-08-21T15:11:21;25.90;66.80
8539;DHT22;4307;53.868;11.680;2022-08-21T15:13:56;25.90;66.70
8539;DHT22;4307;53.868;11.680;2022-08-21T15:16:24;26.00;67.00
8539;DHT22;4307;53.868;11.680;2022-08-21T15:18:50;26.10;68.00
8539;DHT22;4307;53.868;11.680;2022-08-21T15:21:18;26.10;67.30
8539;DHT22;4307;53.868;11.680;2022-08-21T15:23:45;26.20;67.30
8539;DHT22;4307;53.868;11.680;2022-08-21T15:26:12;26.10;67.40
8539;DHT22;4307;53.868;11.680;2022-08-21T15:28:39;26.10;67.50
8539;DHT22;4307;53.868;11.680;2022-08-21T15:31:06;26.20;67.60
8539;DHT22;4307;53.868;11.680;2022-08-21T15:33:33;26.20;67.70
8539;DHT22;4307;53.868;11.680;2022-08-21T15:36:00;26.40;68.10
8539;DHT22;4307;53.868;11.680;2022-08-21T15:38:28;26.50;67.70
8539;DHT22;4307;53.868;11.680;2022-08-21T15:40:55;26.60;67.30
8539;DHT22;4307;53.868;11.680;2022-08-21T15:43:24;26.70;66.90
8539;DHT22;4307;53.868;11.680;2022-08-21T15:45:51;26.80;66.60
8539;DHT22;4307;53.868;11.680;2022-08-21T15:48:18;26.90;66.50
8539;DHT22;4307;53.868;11.680;2022-08-21T15:50:45;27.00;66.30
8539;DHT22;4307;53.868;11.680;2022-08-21T15:53:12;26.90;66.20
8539;DHT22;4307;53.868;11.680;2022-08-21T15:55:41;26.90;66.10
8539;DHT22;4307;53.868;11.680;2022-08-21T15:58:13;26.90;66.20
8539;DHT22;4307;53.868;11.680;2022-08-21T16:00:40;27.00;66.30